Time;durP1;ratioP1;P1;durP2;ratioP2;P2;SDS_P1;SDS_P2;PMS_P1;PMS_P2;Temp;Humidity;BMP_temperature;BMP_pressure;BME280_temperature;BME280_humidity;BME280_pressure;Samples;Min_cycle;Max_cycle;Signal;HPM_P1;HPM_P2
2023/08/01 00:01:29;;;;;;;6.27;5.97;;;19.30;99.90;;;;;;4987005;28;20422;-64
2023/08/01 00:03:54;;;;;;;5.97;5.80;;;19.30;99.90;;;;;;4989531;28;20430;-62
2023/08/01 00:06:21;;;;;;;5.63;5.53;;;19.40;99.90;;;;;;4986951;28;20427;-64
2023/08/01 00:08:48;;;;;;;6.00;5.80;;;19.40;99.90;;;;;;4979719;28;20227;-59
2023/08/01 00:11:14;;;;;;;5.70;5.60;;;19.30;99.90;;;;;;4983754;28;20533;-64
2023/08/01 00:13:40;;;;;;;5.97;5.87;;;19.30;99.90;;;;;;4985938;28;20513;-64
2023/08/01 00:16:06;;;;;;;6.40;6.10;;;19.40;99.90;;;;;;4992930;28;20465;-63
2023/08/01 00:18:32;;;;;;;6.13;5.93;;;19.30;99.90;;;;;;4983497;28;20419;-64
2023/08/01 00:20:58;;;;;;;5.90;5.70;;;19.40;99.90;;;;;;4991192;28;20426;-63
2023/08/01 00:23:24;;;;;;;6.63;6.43;;;19.40;99.90;;;;;;4979803;28;20230;-64
2023/08/01 00:25:51;;;;;;;5.77;5.67;;;19.40;99.90;;;;;;4981466;28;20443;-60
2023/08/01 00:28:23;;;;;;;5.70;5.50;;;19.50;99.90;;;;;;4977507;28;20403;-64
2023/08/01 00:30:48;;;;;;;5.77;5.63;;;19.50;99.90;;;;;;4977494;28;20933;-61
2023/08/01 00:33:14;;;;;;;5.70;5.60;;;19.50;99.90;;;;;;4983099;28;20436;-64
2023/08/01 00:35:41;;;;;;;5.60;5.40;;;19.40;99.90;;;;;;4983076;28;20191;-63
2023/08/01 00:38:06;;;;;;;6.40;6.20;;;19.40;99.90;;;;;;4981023;28;20433;-64
2023/08/01 00:40:33;;;;;;;5.93;5.73;;;19.50;99.90;;;;;;4981785;28;20427;-63
2023/08/01 00:42:59;;;;;;;5.80;5.70;;;19.50;99.90;;;;;;4982672;28;20191;-63
2023/08/01 00:45:29;;;;;;;5.97;5.87;;;19.50;99.90;;;;;;4977224;28;20981;-64
2023/08/01 00:47:56;;;;;;;6.20;6.10;;;19.50;99.90;;;;;;4981836;28;20436;-63
2023/08/01 00:50:23;;;;;;;5.80;5.60;;;19.60;99.90;;;;;;4973801;28;20404;-64
2023/08/01 00:52:51;;;;;;;5.80;5.70;;;19.60;99.90;;;;;;4990204;28;20513;-59
2023/08/01 00:55:18;;;;;;;5.40;5.30;;;19.60;99.90;;;;;;4985418;28;20902;-64
2023/08/01 00:57:44;;;;;;;5.60;5.50;;;19.60;99.90;;;;;;4981133;28;20423;-63
2023/08/01 01:00:10;;;;;;;5.70;5.60;;;19.70;99.90;;;;;;4982356;28;20431;-64
2023/08/01 01:02:37;;;;;;;5.87;5.67;;;19.70;99.90;;;;;;4973364;28;20543;-64
2023/08/01 01:05:03;;;;;;;5.63;5.43;;;19.70;99.90;;;;;;4972391;28;20438;-64
2023/08/01 01:07:30;;;;;;;6.00;5.80;;;19.70;99.90;;;;;;4975837;28;20471;-64
2023/08/01 01:09:56;;;;;;;5.90;5.70;;;19.70;99.90;;;;;;4992015;28;20394;-64
2023/08/01 01:12:22;;;;;;;6.30;6.10;;;19.70;99.90;;;;;;4985191;28;20470;-64
2023/08/01 01:14:47;;;;;;;6.10;5.90;;;19.70;99.90;;;;;;4992989;28;20195;-64
2023/08/01 01:17:13;;;;;;;5.90;5.80;;;19.80;99.90;;;;;;4985682;28;20442;-64
2023/08/01 01:19:39;;;;;;;6.40;6.10;;;19.80;99.90;;;;;;4985483;28;20183;-64
2023/08/01 01:22:07;;;;;;;6.50;6.30;;;19.90;99.90;;;;;;4986561;28;20194;-63
2023/08/01 01:24:37;;;;;;;6.03;5.83;;;19.90;99.90;;;;;;4986111;28;20224;-64
2023/08/01 01:27:04;;;;;;;5.90;5.70;;;19.90;99.90;;;;;;4983777;28;20447;-64
2023/08/01 01:29:32;;;;;;;5.67;5.30;;;19.90;99.90;;;;;;4973563;28;20404;-64
2023/08/01 01:32:00;;;;;;;6.30;6.20;;;19.90;99.90;;;;;;4974734;28;20483;-64
2023/08/01 01:34:27;;;;;;;6.50;6.20;;;19.90;99.90;;;;;;4990822;28;20436;-64
2023/08/01 01:36:53;;;;;;;6.60;6.30;;;19.90;99.90;;;;;;4992330;28;20406;-60
2023/08/01 01:39:18;;;;;;;6.40;6.20;;;19.90;99.90;;;;;;4990877;28;20415;-64
2023/08/01 01:41:44;;;;;;;5.93;5.73;;;19.80;99.90;;;;;;4982194;28;20628;-66
2023/08/01 01:44:10;;;;;;;5.70;5.50;;;19.80;99.90;;;;;;4976604;28;20172;-64
2023/08/01 01:46:36;;;;;;;5.70;5.57;;;19.80;99.90;;;;;;4978582;28;20173;-65
2023/08/01 01:49:01;;;;;;;5.50;5.40;;;19.80;99.90;;;;;;4980475;28;20268;-65
2023/08/01 01:51:29;;;;;;;5.67;5.50;;;19.80;99.90;;;;;;4992059;28;20207;-65
2023/08/01 01:53:54;;;;;;;5.90;5.80;;;19.80;99.90;;;;;;4984795;28;20455;-60
2023/08/01 01:56:20;;;;;;;5.30;5.20;;;19.70;99.90;;;;;;4986173;28;20895;-65
2023/08/01 01:58:46;;;;;;;5.50;5.40;;;19.70;99.90;;;;;;4984310;28;20670;-65
2023/08/01 02:01:12;;;;;;;5.90;5.70;;;19.70;99.90;;;;;;4987775;28;20461;-65
2023/08/01 02:03:37;;;;;;;5.80;5.50;;;19.60;99.90;;;;;;4985980;28;20176;-65
2023/08/01 02:06:03;;;;;;;5.50;5.40;;;19.70;99.90;;;;;;4972438;28;20172;-64
2023/08/01 02:08:30;;;;;;;5.70;5.60;;;19.70;99.90;;;;;;4990617;28;20179;-65
2023/08/01 02:10:58;;;;;;;5.37;5.07;;;19.70;99.90;;;;;;4987437;28;20210;-60
2023/08/01 02:13:27;;;;;;;5.80;5.60;;;19.70;99.90;;;;;;4987645;28;20418;-66
2023/08/01 02:15:53;;;;;;;6.40;6.10;;;19.70;99.90;;;;;;4980564;28;20423;-60
2023/08/01 02:18:19;;;;;;;6.20;6.00;;;19.60;99.90;;;;;;4991590;28;20441;-66
2023/08/01 02:20:45;;;;;;;6.60;6.40;;;19.70;99.90;;;;;;4979420;28;20783;-66
2023/08/01 02:23:11;;;;;;;6.90;6.60;;;19.70;99.90;;;;;;4975914;28;20689;-65
2023/08/01 02:25:40;;;;;;;6.93;6.63;;;19.70;99.90;;;;;;4988921;28;20585;-66
2023/08/01 02:28:07;;;;;;;6.97;6.77;;;19.70;99.90;;;;;;4991395;28;20183;-65
2023/08/01 02:30:34;;;;;;;6.43;6.23;;;19.70;99.90;;;;;;4980246;28;20424;-65
2023/08/01 02:32:59;;;;;;;7.23;6.93;;;19.70;99.90;;;;;;4977028;28;20859;-65
2023/08/01 02:35:26;;;;;;;8.00;7.37;;;19.70;99.90;;;;;;4975725;28;20434;-65
2023/08/01 02:37:51;;;;;;;7.30;7.00;;;19.70;99.90;;;;;;4976112;28;20168;-66
2023/08/01 02:40:17;;;;;;;7.73;7.43;;;19.70;99.90;;;;;;4977700;28;20853;-65
2023/08/01 02:42:43;;;;;;;7.73;7.43;;;19.70;99.90;;;;;;4990321;28;20188;-66
2023/08/01 02:45:09;;;;;;;7.70;7.30;;;19.70;99.90;;;;;;4975261;28;20247;-64
2023/08/01 02:47:34;;;;;;;8.73;8.33;;;19.80;99.90;;;;;;4980961;28;20204;-66
2023/08/01 02:50:00;;;;;;;8.27;7.87;;;19.80;99.90;;;;;;4989817;28;20297;-65
2023/08/01 02:52:26;;;;;;;8.73;8.13;;;19.80;99.90;;;;;;4990567;28;20211;-65
2023/08/01 02:54:51;;;;;;;9.43;8.50;;;19.80;99.90;;;;;;4988419;28;20188;-65
2023/08/01 02:57:17;;;;;;;8.03;7.73;;;19.70;99.90;;;;;;4979997;28;20840;-62
2023/08/01 02:59:43;;;;;;;7.47;7.17;;;19.70;99.90;;;;;;4994898;28;20180;-66
2023/08/01 03:02:08;;;;;;;6.90;6.60;;;19.70;99.90;;;;;;4981477;28;20620;-66
2023/08/01 03:04:35;;;;;;;7.67;7.27;;;19.50;99.90;;;;;;4979325;28;20167;-59
2023/08/01 03:07:01;;;;;;;7.07;6.77;;;19.50;99.90;;;;;;4992621;28;20175;-60
2023/08/01 03:09:27;;;;;;;7.17;6.77;;;19.40;99.90;;;;;;4980931;28;20415;-66
2023/08/01 03:11:52;;;;;;;7.63;7.20;;;19.40;99.90;;;;;;4994954;28;20526;-65
2023/08/01 03:14:18;;;;;;;6.57;6.27;;;19.30;99.90;;;;;;4977680;28;20265;-66
2023/08/01 03:16:44;;;;;;;7.27;6.87;;;19.20;99.90;;;;;;4986248;28;20183;-65
2023/08/01 03:19:09;;;;;;;7.40;7.00;;;19.20;99.90;;;;;;4993437;28;20202;-65
2023/08/01 03:21:35;;;;;;;7.60;7.10;;;19.20;99.90;;;;;;4976715;28;20187;-65
2023/08/01 03:24:02;;;;;;;7.43;7.03;;;19.20;99.90;;;;;;4986250;28;20302;-64
2023/08/01 03:26:28;;;;;;;6.90;6.60;;;19.20;99.90;;;;;;4994107;28;20519;-65
2023/08/01 03:28:55;;;;;;;8.47;8.07;;;19.20;99.90;;;;;;4979157;28;20424;-66
2023/08/01 03:31:24;;;;;;;9.03;8.37;;;19.10;99.90;;;;;;4976459;28;21378;-66
2023/08/01 03:33:50;;;;;;;8.70;8.30;;;19.10;99.90;;;;;;4994628;28;20435;-66
2023/08/01 03:36:16;;;;;;;10.17;9.47;;;19.10;99.90;;;;;;4977003;28;20911;-64
2023/08/01 03:38:42;;;;;;;10.73;10.13;;;19.10;99.90;;;;;;4982084;28;20434;-66
2023/08/01 03:41:07;;;;;;;14.17;12.70;;;19.20;99.90;;;;;;4974255;28;20291;-66
2023/08/01 03:43:33;;;;;;;8.00;7.47;;;19.20;99.90;;;;;;4981647;28;20193;-66
2023/08/01 03:45:59;;;;;;;9.50;8.87;;;19.10;99.90;;;;;;4990136;28;20179;-60
2023/08/01 03:48:25;;;;;;;13.10;12.20;;;19.10;99.90;;;;;;4991665;28;20271;-66
2023/08/01 03:50:50;;;;;;;8.80;8.17;;;19.10;99.90;;;;;;4974885;28;20180;-66
2023/08/01 03:53:16;;;;;;;10.37;9.50;;;19.10;99.90;;;;;;4990173;28;20300;-66
2023/08/01 03:55:44;;;;;;;10.37;9.77;;;19.00;99.90;;;;;;4983368;28;20172;-66
2023/08/01 03:58:10;;;;;;;10.97;9.97;;;19.00;99.90;;;;;;4993311;28;20218;-66
2023/08/01 04:00:35;;;;;;;11.20;10.37;;;19.00;99.90;;;;;;4994049;28;20950;-66
2023/08/01 04:03:02;;;;;;;12.83;11.93;;;19.10;99.90;;;;;;4989950;28;20172;-60
2023/08/01 04:05:28;;;;;;;14.30;13.20;;;19.00;99.90;;;;;;4975394;28;20182;-66
2023/08/01 04:07:57;;;;;;;16.07;14.97;;;19.00;99.90;;;;;;4973480;28;20867;-66
2023/08/01 04:10:23;;;;;;;12.50;11.60;;;19.00;99.90;;;;;;4976387;28;20427;-66
2023/08/01 04:12:49;;;;;;;13.00;11.77;;;19.00;99.90;;;;;;4974003;28;20553;-66
2023/08/01 04:15:15;;;;;;;12.43;11.53;;;19.00;99.90;;;;;;4984733;28;20470;-66
2023/08/01 04:17:40;;;;;;;14.77;13.73;;;19.00;99.90;;;;;;4975659;28;20428;-66
2023/08/01 04:20:06;;;;;;;13.67;12.57;;;19.00;99.90;;;;;;4978153;28;20183;-66
2023/08/01 04:22:32;;;;;;;13.53;12.50;;;19.00;99.90;;;;;;4993648;28;20188;-66
2023/08/01 04:24:58;;;;;;;13.90;12.80;;;19.00;99.90;;;;;;4979606;28;20526;-67
2023/08/01 04:27:24;;;;;;;12.73;11.70;;;19.00;99.90;;;;;;4977684;28;20192;-66
2023/08/01 04:29:49;;;;;;;14.13;13.03;;;18.80;99.90;;;;;;4988023;28;20674;-67
2023/08/01 04:32:15;;;;;;;13.57;12.27;;;18.90;99.90;;;;;;4986712;28;20613;-66
2023/08/01 04:34:43;;;;;;;14.50;13.30;;;18.80;99.90;;;;;;4991600;28;20230;-66
2023/08/01 04:37:10;;;;;;;11.57;10.37;;;18.80;99.90;;;;;;4992655;28;20175;-66
2023/08/01 04:39:36;;;;;;;11.80;10.60;;;18.80;99.90;;;;;;4990640;28;20418;-66
2023/08/01 04:42:02;;;;;;;10.60;9.60;;;18.80;99.90;;;;;;4988823;28;20829;-60
2023/08/01 04:44:29;;;;;;;12.00;10.77;;;18.70;99.90;;;;;;4991937;28;20517;-65
2023/08/01 04:46:54;;;;;;;12.67;11.77;;;18.70;99.90;;;;;;4981782;28;20432;-65
2023/08/01 04:49:20;;;;;;;11.67;10.77;;;18.70;99.90;;;;;;4985547;28;20813;-65
2023/08/01 04:51:47;;;;;;;11.00;10.30;;;18.70;99.90;;;;;;4973798;28;20208;-66
2023/08/01 04:54:12;;;;;;;9.37;8.57;;;18.80;99.90;;;;;;4972207;28;20547;-66
2023/08/01 04:56:38;;;;;;;10.63;9.73;;;18.80;99.90;;;;;;4974290;28;20428;-65
2023/08/01 04:59:04;;;;;;;11.30;10.33;;;18.80;99.90;;;;;;4989975;28;20508;-60
2023/08/01 05:01:30;;;;;;;13.10;12.00;;;18.80;99.90;;;;;;4985438;28;20183;-65
2023/08/01 05:03:55;;;;;;;12.37;11.37;;;18.80;99.90;;;;;;4989199;28;20188;-65
2023/08/01 05:06:21;;;;;;;10.60;9.73;;;18.80;99.90;;;;;;4989249;28;20258;-65
2023/08/01 05:08:47;;;;;;;15.73;14.47;;;18.80;99.90;;;;;;4990798;28;20278;-66
2023/08/01 05:11:12;;;;;;;13.33;12.10;;;18.90;99.90;;;;;;4991189;28;20659;-65
2023/08/01 05:13:38;;;;;;;11.90;10.70;;;18.80;99.90;;;;;;4986735;28;20182;-65
2023/08/01 05:16:04;;;;;;;12.93;11.70;;;18.80;99.90;;;;;;4988638;28;20184;-60
2023/08/01 05:18:32;;;;;;;13.47;12.27;;;18.80;99.90;;;;;;4985970;28;20176;-64
2023/08/01 05:20:58;;;;;;;12.33;10.97;;;18.80;99.90;;;;;;4990272;28;20171;-65
2023/08/01 05:23:23;;;;;;;14.00;12.70;;;18.80;99.90;;;;;;4983107;28;20538;-65
2023/08/01 05:25:49;;;;;;;15.53;14.03;;;18.70;99.90;;;;;;4985833;28;20203;-65
2023/08/01 05:28:15;;;;;;;16.60;13.30;;;18.80;99.90;;;;;;4976251;28;20573;-63
2023/08/01 05:30:41;;;;;;;14.37;13.07;;;18.80;99.90;;;;;;4987689;28;20174;-65
2023/08/01 05:33:07;;;;;;;13.90;12.50;;;18.80;99.90;;;;;;4991713;28;20196;-60
2023/08/01 05:35:32;;;;;;;13.20;11.93;;;18.80;99.90;;;;;;4978697;28;20427;-65
2023/08/01 05:37:59;;;;;;;14.40;13.20;;;18.80;99.90;;;;;;4986459;28;20631;-65
2023/08/01 05:40:25;;;;;;;13.40;12.30;;;18.80;99.90;;;;;;4983995;28;20192;-65
2023/08/01 05:42:51;;;;;;;14.17;12.83;;;18.80;99.90;;;;;;4986015;28;20517;-65
2023/08/01 05:45:17;;;;;;;14.40;13.40;;;18.80;99.90;;;;;;4990152;28;20180;-65
2023/08/01 05:47:42;;;;;;;13.90;12.50;;;18.80;99.90;;;;;;4991250;28;20194;-65
2023/08/01 05:50:09;;;;;;;15.40;13.90;;;18.80;99.90;;;;;;4992998;28;20275;-59
2023/08/01 05:52:34;;;;;;;12.90;11.80;;;18.90;99.90;;;;;;4994671;28;20262;-65
2023/08/01 05:55:00;;;;;;;13.70;12.60;;;18.90;99.90;;;;;;4980827;28;20799;-66
2023/08/01 05:57:26;;;;;;;14.37;12.97;;;18.90;99.90;;;;;;4977343;28;20258;-67
2023/08/01 05:59:52;;;;;;;13.23;12.03;;;18.90;99.90;;;;;;4978777;28;20307;-65
2023/08/01 06:02:17;;;;;;;12.53;11.53;;;18.80;99.90;;;;;;4987769;28;20181;-65
2023/08/01 06:04:43;;;;;;;14.40;13.30;;;18.80;99.90;;;;;;4982110;28;20186;-65
2023/08/01 06:07:09;;;;;;;12.77;11.30;;;18.80;99.90;;;;;;4983376;28;20176;-60
2023/08/01 06:09:35;;;;;;;13.17;12.00;;;18.70;99.90;;;;;;4976902;28;20231;-65
2023/08/01 06:12:00;;;;;;;20.60;13.03;;;18.70;99.90;;;;;;4981359;28;20199;-68
2023/08/01 06:14:26;;;;;;;14.60;13.13;;;18.80;99.90;;;;;;4984025;28;20693;-68
2023/08/01 06:16:52;;;;;;;13.80;12.47;;;18.90;99.90;;;;;;4991620;28;20177;-68
2023/08/01 06:19:17;;;;;;;14.20;13.00;;;19.10;99.90;;;;;;4993713;28;20239;-66
2023/08/01 06:21:43;;;;;;;13.80;12.60;;;19.20;99.90;;;;;;4993859;28;20242;-65
2023/08/01 06:24:10;;;;;;;14.57;13.27;;;19.40;99.90;;;;;;4993828;28;20211;-61
2023/08/01 06:26:36;;;;;;;14.53;13.23;;;19.60;99.90;;;;;;4985059;28;20184;-70
2023/08/01 06:29:01;;;;;;;14.93;13.37;;;19.80;99.90;;;;;;4986496;28;20454;-72
2023/08/01 06:31:27;;;;;;;14.00;12.70;;;20.00;99.90;;;;;;4980062;28;20204;-75
2023/08/01 06:33:53;;;;;;;14.17;12.67;;;20.10;99.90;;;;;;4993790;28;20568;-70
2023/08/01 06:36:19;;;;;;;14.07;12.77;;;20.20;99.90;;;;;;4994090;28;20172;-79
2023/08/01 06:38:44;;;;;;;18.67;16.80;;;20.20;99.90;;;;;;4994315;28;20192;-73
2023/08/01 06:41:10;;;;;;;15.80;14.20;;;20.10;99.90;;;;;;4992069;28;20183;-61
2023/08/01 06:43:38;;;;;;;12.93;11.80;;;20.00;99.90;;;;;;4981624;28;20757;-68
2023/08/01 06:46:05;;;;;;;13.67;12.57;;;19.90;99.90;;;;;;4985676;28;20183;-67
2023/08/01 06:48:34;;;;;;;14.30;12.80;;;19.80;99.90;;;;;;4977093;28;20489;-67
2023/08/01 06:51:01;;;;;;;15.23;13.83;;;19.80;99.90;;;;;;4993465;28;20415;-68
2023/08/01 06:53:26;;;;;;;13.57;12.17;;;19.70;99.90;;;;;;4994256;28;20537;-73
2023/08/01 06:55:52;;;;;;;16.73;13.73;;;19.70;99.90;;;;;;4993438;28;20531;-71
2023/08/01 06:58:18;;;;;;;169.53;143.63;;;19.70;99.90;;;;;;4994792;28;20175;-71
2023/08/01 07:00:44;;;;;;;135.70;98.23;;;19.60;99.90;;;;;;4979992;28;20279;-69
2023/08/01 07:03:10;;;;;;;45.77;40.60;;;19.60;99.90;;;;;;4987647;28;20701;-63
2023/08/01 07:05:36;;;;;;;64.73;56.93;;;19.60;99.90;;;;;;4989030;28;20498;-71
2023/08/01 07:08:02;;;;;;;44.27;34.97;;;19.70;99.90;;;;;;4985086;28;20519;-69
2023/08/01 07:10:28;;;;;;;18.40;16.40;;;19.70;99.90;;;;;;4993511;28;20429;-74
2023/08/01 07:12:54;;;;;;;15.20;13.43;;;19.70;99.90;;;;;;4991971;28;20538;-72
2023/08/01 07:15:19;;;;;;;14.23;12.97;;;19.70;99.90;;;;;;4994515;28;20168;-73
2023/08/01 07:17:45;;;;;;;14.80;12.20;;;19.60;99.90;;;;;;4993336;28;20184;-73
2023/08/01 07:20:11;;;;;;;13.73;12.53;;;19.70;99.90;;;;;;5007001;28;20179;-63
2023/08/01 07:22:37;;;;;;;12.93;11.63;;;19.60;99.90;;;;;;4983412;28;20310;-61
2023/08/01 07:25:03;;;;;;;13.27;12.07;;;19.50;99.90;;;;;;4990691;28;20560;-60
2023/08/01 07:27:28;;;;;;;12.77;11.67;;;19.50;99.90;;;;;;4979338;28;20624;-60
2023/08/01 07:29:54;;;;;;;13.27;11.90;;;19.40;99.90;;;;;;4988249;28;20431;-61
2023/08/01 07:32:20;;;;;;;13.27;11.37;;;19.50;99.90;;;;;;4989605;28;20635;-60
2023/08/01 07:34:46;;;;;;;11.80;10.80;;;19.60;99.90;;;;;;4992760;28;20226;-60
2023/08/01 07:37:11;;;;;;;11.93;11.00;;;19.60;99.90;;;;;;4980914;28;20626;-62
2023/08/01 07:39:40;;;;;;;12.80;11.77;;;19.50;99.90;;;;;;4990841;28;20176;-61
2023/08/01 07:42:05;;;;;;;12.07;10.90;;;19.40;99.90;;;;;;4993868;28;20590;-61
2023/08/01 07:44:31;;;;;;;121.63;97.33;;;19.40;99.90;;;;;;4984003;28;20495;-61
2023/08/01 07:46:57;;;;;;;28.57;25.40;;;19.30;99.90;;;;;;4987844;28;20199;-60
2023/08/01 07:49:23;;;;;;;12.70;11.17;;;19.30;99.90;;;;;;4984487;28;20211;-60
2023/08/01 07:51:48;;;;;;;11.50;10.50;;;19.30;99.90;;;;;;4982638;28;20254;-59
2023/08/01 07:54:14;;;;;;;11.53;10.20;;;19.30;99.90;;;;;;4991455;28;20534;-60
2023/08/01 07:56:40;;;;;;;11.00;9.90;;;19.20;99.90;;;;;;4989391;28;20460;-63
2023/08/01 07:59:06;;;;;;;11.83;10.83;;;19.20;99.90;;;;;;4984824;28;20603;-59
2023/08/01 08:01:32;;;;;;;11.30;10.30;;;19.20;99.90;;;;;;4989620;28;20216;-59
2023/08/01 08:03:57;;;;;;;10.50;9.60;;;19.10;99.90;;;;;;4987150;28;20207;-59
2023/08/01 08:06:24;;;;;;;10.07;9.17;;;19.00;99.90;;;;;;4980689;28;20180;-57
2023/08/01 08:08:49;;;;;;;11.30;10.27;;;19.00;99.90;;;;;;4985178;28;20179;-59
2023/08/01 08:11:16;;;;;;;10.23;9.43;;;19.10;99.90;;;;;;4986252;28;20925;-61
2023/08/01 08:13:42;;;;;;;10.40;9.50;;;19.20;99.90;;;;;;4986275;28;20435;-59
2023/08/01 08:16:08;;;;;;;10.03;9.03;;;19.20;99.90;;;;;;4988483;28;20423;-61
2023/08/01 08:18:33;;;;;;;9.93;9.03;;;19.20;99.90;;;;;;4987715;28;20415;-59
2023/08/01 08:20:59;;;;;;;9.77;8.97;;;19.10;99.90;;;;;;4983882;28;20172;-62
2023/08/01 08:23:25;;;;;;;9.47;7.60;;;19.10;99.90;;;;;;4980155;28;20279;-61
2023/08/01 08:25:51;;;;;;;10.90;9.97;;;19.10;99.90;;;;;;4984267;28;20203;-60
2023/08/01 08:28:28;;;;;;;8.80;8.00;;;19.20;99.90;;;;;;4987015;28;20175;-61
2023/08/01 08:30:54;;;;;;;10.33;9.30;;;19.20;99.90;;;;;;4989337;28;20194;-59
2023/08/01 08:33:21;;;;;;;10.30;9.23;;;19.10;99.90;;;;;;4983711;28;20439;-60
2023/08/01 08:35:47;;;;;;;9.03;8.43;;;19.10;99.90;;;;;;4982359;28;20196;-59
2023/08/01 08:38:12;;;;;;;11.07;10.17;;;19.10;99.90;;;;;;4981612;28;20442;-59
2023/08/01 08:40:43;;;;;;;9.70;8.70;;;19.20;99.90;;;;;;4979129;28;20927;-57
2023/08/01 08:43:11;;;;;;;292.33;203.13;;;19.20;99.90;;;;;;4985016;28;20219;-59
2023/08/01 08:45:41;;;;;;;19.30;17.27;;;19.40;99.90;;;;;;4987667;28;21020;-59
2023/08/01 08:48:14;;;;;;;12.07;10.87;;;19.40;99.90;;;;;;4982716;28;20484;-59
2023/08/01 08:50:41;;;;;;;9.67;8.97;;;19.50;99.90;;;;;;4987280;28;20399;-60
2023/08/01 08:53:12;;;;;;;8.97;8.10;;;19.60;99.90;;;;;;4981476;28;20497;-60
2023/08/01 08:55:39;;;;;;;8.07;7.37;;;19.70;99.90;;;;;;4980213;28;20443;-59
2023/08/01 08:58:05;;;;;;;9.37;8.60;;;19.80;99.90;;;;;;4986551;28;20457;-59
2023/08/01 09:00:32;;;;;;;10.63;8.87;;;19.90;99.90;;;;;;4984331;28;20408;-59
2023/08/01 09:02:57;;;;;;;6.83;6.43;;;20.00;99.90;;;;;;4986604;28;20788;-59
2023/08/01 09:05:28;;;;;;;9.57;8.87;;;20.00;99.90;;;;;;4981198;28;20415;-59
2023/08/01 09:07:57;;;;;;;11.20;10.47;;;20.00;99.90;;;;;;4983994;28;20575;-59
2023/08/01 09:10:23;;;;;;;8.43;7.67;;;19.90;99.90;;;;;;4987162;28;20489;-59
2023/08/01 09:12:49;;;;;;;10.03;9.10;;;19.90;99.90;;;;;;4982083;28;20459;-59
2023/08/01 09:15:16;;;;;;;9.67;8.73;;;20.00;99.90;;;;;;4986461;28;20406;-61
2023/08/01 09:17:52;;;;;;;12.60;7.13;;;20.00;99.90;;;;;;4985323;28;20422;-59
2023/08/01 09:20:18;;;;;;;9.97;9.27;;;20.00;99.90;;;;;;4983053;28;20418;-61
2023/08/01 09:22:45;;;;;;;9.10;8.47;;;20.00;99.90;;;;;;4983438;28;20422;-59
2023/08/01 09:25:11;;;;;;;8.47;7.57;;;20.00;99.90;;;;;;4982137;28;20216;-59
2023/08/01 09:27:37;;;;;;;92.70;71.90;;;19.90;99.90;;;;;;4984216;28;20426;-59
2023/08/01 09:30:16;;;;;;;255.93;200.13;;;19.90;99.90;;;;;;4983422;28;20419;-59
2023/08/01 09:32:55;;;;;;;76.07;64.40;;;19.70;99.90;;;;;;4983491;28;20270;-59
2023/08/01 09:35:22;;;;;;;8.43;7.40;;;19.90;99.90;;;;;;4984995;28;20414;-59
2023/08/01 09:37:48;;;;;;;7.80;7.20;;;20.10;99.90;;;;;;4982709;28;20412;-59
2023/08/01 09:40:14;;;;;;;9.50;8.80;;;20.20;99.90;;;;;;4980283;28;20411;-59
2023/08/01 09:42:41;;;;;;;7.60;7.00;;;20.30;99.90;;;;;;4985572;28;20419;-59
2023/08/01 09:45:15;;;;;;;10.40;9.47;;;20.40;99.90;;;;;;4981312;28;20434;-59
2023/08/01 09:47:42;;;;;;;7.10;6.50;;;20.40;99.90;;;;;;4981137;28;20396;-59
2023/08/01 09:50:10;;;;;;;9.70;9.00;;;20.60;99.90;;;;;;4983449;28;20395;-61
2023/08/01 09:52:36;;;;;;;9.07;8.27;;;20.70;99.90;;;;;;4984752;28;21255;-61
2023/08/01 09:55:02;;;;;;;8.17;7.33;;;20.80;99.90;;;;;;4981457;28;20442;-59
2023/08/01 09:57:30;;;;;;;8.30;7.80;;;20.90;99.90;;;;;;4983419;28;20426;-59
2023/08/01 09:59:59;;;;;;;7.60;6.87;;;21.00;99.90;;;;;;4982149;28;20445;-59
2023/08/01 10:02:29;;;;;;;9.63;9.10;;;21.00;99.90;;;;;;4978789;28;20525;-59
2023/08/01 10:04:57;;;;;;;8.10;7.50;;;21.10;99.90;;;;;;4984939;28;20407;-58
2023/08/01 10:07:26;;;;;;;55.03;44.83;;;21.20;99.90;;;;;;4982432;28;20388;-60
2023/08/01 10:09:55;;;;;;;72.93;65.00;;;21.40;99.90;;;;;;4986251;28;20407;-59
2023/08/01 10:12:23;;;;;;;9.07;8.37;;;21.50;99.90;;;;;;4979744;28;20866;-60
2023/08/01 10:14:49;;;;;;;7.60;7.10;;;21.70;99.90;;;;;;4981675;28;20903;-59
2023/08/01 10:17:16;;;;;;;7.80;7.30;;;21.80;99.90;;;;;;4991343;28;20509;-59
2023/08/01 10:19:42;;;;;;;6.80;6.30;;;21.90;99.90;;;;;;4985673;28;20502;-57
2023/08/01 10:22:09;;;;;;;6.27;5.77;;;22.10;99.90;;;;;;4973700;28;20415;-58
2023/08/01 10:24:37;;;;;;;6.20;5.80;;;22.30;99.90;;;;;;4977347;28;20457;-59
2023/08/01 10:27:13;;;;;;;6.07;5.50;;;22.20;99.90;;;;;;4992054;28;20453;-58
2023/08/01 10:29:39;;;;;;;6.83;6.43;;;22.10;99.90;;;;;;4991484;28;20418;-59
2023/08/01 10:32:07;;;;;;;6.17;5.67;;;21.90;99.90;;;;;;4995676;28;20450;-58
2023/08/01 10:34:33;;;;;;;8.20;7.70;;;21.70;99.90;;;;;;4987183;28;20836;-58
2023/08/01 10:36:59;;;;;;;6.13;5.63;;;21.50;99.90;;;;;;4992390;28;20426;-61
2023/08/01 10:39:26;;;;;;;10.30;9.70;;;21.20;99.90;;;;;;4994882;28;20163;-59
2023/08/01 10:42:03;;;;;;;310.90;254.70;;;21.00;99.90;;;;;;4993762;28;20427;-60
2023/08/01 10:44:31;;;;;;;24.80;22.20;;;20.90;99.90;;;;;;4994761;28;20418;-59
2023/08/01 10:47:01;;;;;;;6.80;6.20;;;20.90;99.90;;;;;;4995527;28;20462;-57
2023/08/01 10:49:44;;;;;;;6.47;6.00;;;20.80;99.90;;;;;;4980200;28;20423;-58
2023/08/01 10:52:19;;;;;;;9.20;8.60;;;20.90;99.90;;;;;;4987321;28;20929;-57
2023/08/01 10:54:46;;;;;;;9.93;9.23;;;20.80;99.90;;;;;;4985029;28;20435;-58
2023/08/01 10:57:18;;;;;;;7.30;6.70;;;20.90;99.90;;;;;;4986335;28;20412;-57
2023/08/01 10:59:44;;;;;;;9.83;8.90;;;21.00;99.90;;;;;;4983221;28;20760;-56
2023/08/01 11:02:10;;;;;;;9.60;8.80;;;21.10;99.90;;;;;;4984917;28;20751;-58
2023/08/01 11:04:36;;;;;;;7.50;6.90;;;21.30;99.90;;;;;;4985172;28;20454;-57
2023/08/01 11:07:04;;;;;;;7.37;6.80;;;21.40;99.90;;;;;;4983893;28;20404;-57
2023/08/01 11:09:29;;;;;;;7.57;6.87;;;21.40;99.90;;;;;;4985644;28;20164;-58
2023/08/01 11:11:59;;;;;;;7.27;6.53;;;21.50;99.90;;;;;;4983295;28;20498;-57
2023/08/01 11:14:29;;;;;;;7.23;6.67;;;21.60;99.90;;;;;;4983364;28;20203;-59
2023/08/01 11:16:59;;;;;;;7.60;6.90;;;21.70;99.90;;;;;;4985889;28;20403;-56
2023/08/01 11:19:30;;;;;;;8.13;6.53;;;21.70;99.90;;;;;;4982392;28;20495;-58
2023/08/01 11:21:57;;;;;;;18.57;16.93;;;21.80;99.90;;;;;;4981985;28;20471;-56
2023/08/01 11:24:24;;;;;;;25.83;20.30;;;21.60;99.90;;;;;;4982878;28;20447;-58
2023/08/01 11:26:52;;;;;;;46.30;39.90;;;21.50;99.90;;;;;;4983969;28;20478;-56
2023/08/01 11:29:19;;;;;;;25.77;22.90;;;21.50;99.90;;;;;;4985966;28;20498;-58
2023/08/01 11:31:55;;;;;;;8.63;7.83;;;21.40;99.90;;;;;;4983956;28;20490;-55
2023/08/01 11:34:21;;;;;;;6.90;6.30;;;21.20;99.90;;;;;;4980277;28;20422;-57
2023/08/01 11:36:47;;;;;;;8.67;7.97;;;21.10;99.90;;;;;;4974341;28;20431;-54
2023/08/01 11:39:15;;;;;;;7.00;6.60;;;20.90;99.90;;;;;;4974941;28;20895;-59
2023/08/01 11:41:41;;;;;;;6.70;6.20;;;20.70;99.90;;;;;;4987906;28;20413;-60
2023/08/01 11:44:08;;;;;;;5.80;5.50;;;20.40;99.90;;;;;;4994556;28;20490;-60
2023/08/01 11:46:35;;;;;;;6.10;5.77;;;20.20;99.90;;;;;;4993726;28;20823;-58
2023/08/01 11:49:02;;;;;;;8.03;7.43;;;20.10;99.90;;;;;;4994500;28;20399;-58
2023/08/01 11:51:28;;;;;;;6.57;6.07;;;20.00;99.90;;;;;;4992467;28;20422;-59
2023/08/01 11:54:04;;;;;;;6.00;5.50;;;19.90;99.90;;;;;;4994459;28;20883;-58
2023/08/01 11:56:30;;;;;;;6.30;5.80;;;19.80;99.90;;;;;;4993507;28;20446;-59
2023/08/01 11:58:57;;;;;;;6.80;6.30;;;19.80;99.90;;;;;;4993344;28;20764;-58
2023/08/01 12:01:23;;;;;;;6.33;5.93;;;19.90;99.90;;;;;;4992403;28;20910;-58
2023/08/01 12:03:54;;;;;;;7.07;6.57;;;19.80;99.90;;;;;;4988394;28;20511;-57
2023/08/01 12:06:21;;;;;;;6.90;6.37;;;19.80;99.90;;;;;;4985607;28;20774;-58
2023/08/01 12:08:49;;;;;;;6.30;5.80;;;19.80;99.90;;;;;;4991950;28;20407;-59
2023/08/01 12:11:26;;;;;;;6.97;6.37;;;19.60;99.90;;;;;;4993987;28;20822;-57
2023/08/01 12:14:04;;;;;;;6.80;6.27;;;19.50;99.90;;;;;;4992616;28;20442;-57
2023/08/01 12:16:31;;;;;;;7.97;7.20;;;19.50;99.90;;;;;;4993098;28;20440;-57
2023/08/01 12:18:57;;;;;;;7.30;6.80;;;19.30;99.90;;;;;;4993816;28;20433;-58
2023/08/01 12:21:23;;;;;;;9.10;8.20;;;19.20;99.90;;;;;;4993480;28;20411;-58
2023/08/01 12:23:49;;;;;;;7.33;6.83;;;19.10;99.90;;;;;;4978010;28;20455;-56
2023/08/01 12:26:14;;;;;;;7.43;6.80;;;19.00;99.90;;;;;;4983952;28;20179;-58
2023/08/01 12:28:40;;;;;;;8.10;7.40;;;19.00;99.90;;;;;;4980885;28;20203;-57
2023/08/01 12:31:06;;;;;;;7.60;7.00;;;19.00;99.90;;;;;;4983709;28;20176;-58
2023/08/01 12:33:32;;;;;;;7.70;7.03;;;19.00;99.90;;;;;;4979758;28;20242;-58
2023/08/01 12:35:59;;;;;;;7.67;6.90;;;19.00;99.90;;;;;;4982547;28;20524;-57